Time;durP1;ratioP1;P1;durP2;ratioP2;P2;SDS_P1;SDS_P2;PMS_P1;PMS_P2;Temp;Humidity;BMP_temperature;BMP_pressure;BME280_temperature;BME280_humidity;BME280_pressure;Samples;Min_cycle;Max_cycle;Signal;HPM_P1;HPM_P2
2023/09/22 00:00:03;;;;;;;23.58;18.35;;;15.20;99.90;;;;;;5012976;28;20030;-72
2023/09/22 00:02:31;;;;;;;25.80;17.02;;;15.20;99.90;;;;;;4995372;28;20369;-71
2023/09/22 00:04:58;;;;;;;27.98;19.65;;;15.10;99.90;;;;;;4997412;28;20038;-71
2023/09/22 00:07:25;;;;;;;21.73;16.75;;;15.10;99.90;;;;;;4997264;28;20416;-71
2023/09/22 00:09:51;;;;;;;22.88;18.35;;;15.10;99.90;;;;;;5017738;28;20029;-71
2023/09/22 00:12:17;;;;;;;23.83;17.17;;;15.10;99.90;;;;;;5016609;28;20037;-71
2023/09/22 00:14:45;;;;;;;18.65;15.43;;;15.10;99.90;;;;;;5000292;28;20025;-72
2023/09/22 00:17:11;;;;;;;19.92;15.82;;;15.00;99.90;;;;;;5008894;28;20854;-72
2023/09/22 00:19:38;;;;;;;20.55;15.43;;;15.00;99.90;;;;;;5000739;28;20040;-72
2023/09/22 00:22:05;;;;;;;19.70;16.35;;;15.00;99.90;;;;;;5015112;28;20033;-72
2023/09/22 00:24:31;;;;;;;14.25;12.70;;;15.00;99.90;;;;;;5016016;28;20053;-72
2023/09/22 00:26:58;;;;;;;22.58;18.63;;;15.00;99.90;;;;;;5017351;28;20032;-72
2023/09/22 00:29:24;;;;;;;23.67;18.73;;;14.90;99.90;;;;;;5014956;28;20045;-72
2023/09/22 00:31:51;;;;;;;20.63;17.83;;;14.90;99.90;;;;;;5015924;28;20049;-72
2023/09/22 00:34:17;;;;;;;22.77;18.80;;;14.90;99.90;;;;;;5015282;28;20037;-73
2023/09/22 00:36:44;;;;;;;21.58;17.67;;;14.90;99.90;;;;;;4999646;28;20046;-72
2023/09/22 00:39:11;;;;;;;27.48;20.33;;;14.90;99.90;;;;;;5016905;28;20537;-72
2023/09/22 00:41:38;;;;;;;23.48;17.90;;;14.90;99.90;;;;;;4999644;28;20050;-72
2023/09/22 00:44:04;;;;;;;25.77;18.92;;;14.90;99.90;;;;;;4998746;28;20037;-72
2023/09/22 00:46:32;;;;;;;26.05;19.98;;;14.90;99.90;;;;;;4983501;28;20037;-72
2023/09/22 00:48:59;;;;;;;28.55;20.05;;;14.90;99.90;;;;;;5016164;28;20041;-72
2023/09/22 00:51:26;;;;;;;32.65;23.02;;;14.90;99.90;;;;;;5000536;28;20041;-72
2023/09/22 00:53:53;;;;;;;26.90;20.80;;;14.90;99.90;;;;;;5015813;28;20028;-72
2023/09/22 00:56:21;;;;;;;29.65;21.55;;;14.90;99.90;;;;;;5016311;28;20038;-72
2023/09/22 00:58:49;;;;;;;35.42;26.30;;;14.90;99.90;;;;;;4998521;28;20388;-72
2023/09/22 01:01:18;;;;;;;34.55;25.42;;;14.90;99.90;;;;;;5015461;28;20392;-72
2023/09/22 01:03:45;;;;;;;33.50;24.35;;;14.90;99.90;;;;;;5015094;28;20050;-73
2023/09/22 01:06:12;;;;;;;47.78;31.35;;;14.90;99.90;;;;;;5002477;28;21763;-72
2023/09/22 01:08:38;;;;;;;35.65;24.50;;;14.90;99.90;;;;;;4999551;28;20032;-72
2023/09/22 01:11:04;;;;;;;45.65;30.25;;;14.90;99.90;;;;;;4997920;28;20049;-72
2023/09/22 01:13:31;;;;;;;46.58;30.73;;;14.90;99.90;;;;;;4981642;28;20041;-73
2023/09/22 01:15:57;;;;;;;41.45;27.67;;;14.90;99.90;;;;;;4999589;28;20487;-73
2023/09/22 01:18:24;;;;;;;43.70;28.98;;;14.90;99.90;;;;;;4999932;28;20113;-72
2023/09/22 01:20:50;;;;;;;45.85;30.48;;;14.90;99.90;;;;;;5013180;28;20033;-72
2023/09/22 01:23:17;;;;;;;41.20;27.52;;;14.90;99.90;;;;;;5016100;28;20045;-72
2023/09/22 01:25:45;;;;;;;34.47;24.02;;;14.80;99.90;;;;;;5014979;28;20080;-72
2023/09/22 01:28:12;;;;;;;36.60;24.80;;;14.80;99.90;;;;;;4993324;28;20049;-72
2023/09/22 01:30:39;;;;;;;41.20;27.40;;;14.80;99.90;;;;;;4953886;28;20051;-72
2023/09/22 01:33:06;;;;;;;36.67;25.77;;;14.80;99.90;;;;;;4973211;28;20030;-72
2023/09/22 01:35:35;;;;;;;33.17;22.02;;;14.80;99.90;;;;;;5008961;28;20036;-72
2023/09/22 01:38:25;;;;;;;39.25;26.98;;;14.80;99.90;;;;;;4999144;28;20040;-73
2023/09/22 01:40:54;;;;;;;35.63;23.80;;;14.70;99.90;;;;;;4981042;28;20380;-73
2023/09/22 01:43:20;;;;;;;40.67;29.15;;;14.70;99.90;;;;;;5012532;28;20052;-74
2023/09/22 01:45:47;;;;;;;35.40;26.02;;;14.70;99.90;;;;;;5014179;28;20030;-73
2023/09/22 01:48:13;;;;;;;35.72;24.05;;;14.70;99.90;;;;;;5001289;28;20036;-73
2023/09/22 01:50:41;;;;;;;31.95;21.10;;;14.70;99.90;;;;;;4993598;28;20041;-72
2023/09/22 01:53:10;;;;;;;35.53;21.77;;;14.70;99.90;;;;;;5021573;28;20041;-73
2023/09/22 01:55:38;;;;;;;34.10;22.52;;;14.70;99.90;;;;;;5014605;28;20037;-72
2023/09/22 01:58:07;;;;;;;34.70;23.92;;;14.60;99.90;;;;;;4981916;28;20985;-73
2023/09/22 02:00:37;;;;;;;31.90;20.23;;;14.60;99.90;;;;;;4983724;28;20049;-73
2023/09/22 02:03:05;;;;;;;35.78;23.10;;;14.50;99.90;;;;;;5013454;28;20033;-73
2023/09/22 02:05:32;;;;;;;35.08;22.63;;;14.50;99.90;;;;;;4997559;28;20400;-72
2023/09/22 02:07:59;;;;;;;31.33;20.77;;;14.50;99.90;;;;;;4997913;28;20113;-73
2023/09/22 02:10:26;;;;;;;30.67;20.65;;;14.40;99.90;;;;;;5014039;28;20496;-72
2023/09/22 02:12:52;;;;;;;27.42;19.42;;;14.40;99.90;;;;;;4996321;28;20408;-73
2023/09/22 02:15:19;;;;;;;28.92;19.67;;;14.30;99.90;;;;;;4998424;28;20033;-72
2023/09/22 02:17:46;;;;;;;27.50;18.58;;;14.30;99.90;;;;;;5014073;28;20034;-73
2023/09/22 02:20:22;;;;;;;23.73;17.25;;;14.20;99.90;;;;;;4996540;28;20343;-73
2023/09/22 02:22:52;;;;;;;21.92;14.93;;;14.10;99.90;;;;;;4981289;28;20143;-73
2023/09/22 02:25:19;;;;;;;20.23;14.82;;;14.00;99.90;;;;;;4997470;28;20029;-73
2023/09/22 02:27:47;;;;;;;18.40;13.90;;;14.00;99.90;;;;;;5013804;28;20029;-73
2023/09/22 02:30:15;;;;;;;17.80;13.45;;;13.90;99.90;;;;;;4981487;28;20025;-72
2023/09/22 02:32:44;;;;;;;15.48;12.35;;;13.80;99.90;;;;;;5014372;28;20510;-72
2023/09/22 02:35:11;;;;;;;16.33;13.13;;;13.70;99.90;;;;;;5001447;28;20025;-72
2023/09/22 02:37:38;;;;;;;18.95;12.68;;;13.70;99.90;;;;;;5014257;28;20546;-73
2023/09/22 02:40:05;;;;;;;15.63;12.35;;;13.60;99.90;;;;;;5001287;28;20847;-72
2023/09/22 02:42:31;;;;;;;16.55;12.13;;;13.60;99.90;;;;;;5014915;28;20037;-72
2023/09/22 02:44:58;;;;;;;17.15;12.07;;;13.60;99.90;;;;;;5016543;28;20038;-72
2023/09/22 02:47:27;;;;;;;16.25;11.25;;;13.60;99.90;;;;;;4998261;28;20037;-72
2023/09/22 02:49:56;;;;;;;24.00;13.10;;;13.60;99.90;;;;;;4995896;28;20361;-72
2023/09/22 02:52:23;;;;;;;17.42;11.15;;;13.60;99.90;;;;;;5014432;28;20392;-73
2023/09/22 02:55:00;;;;;;;14.75;10.02;;;13.60;99.90;;;;;;4997704;28;20037;-73
2023/09/22 02:57:26;;;;;;;14.88;10.60;;;13.60;99.90;;;;;;5031507;28;20499;-72
2023/09/22 02:59:56;;;;;;;15.57;10.85;;;13.60;99.90;;;;;;4999606;28;20022;-72
2023/09/22 03:02:22;;;;;;;15.85;10.98;;;13.60;99.90;;;;;;5014677;28;20591;-72
2023/09/22 03:04:49;;;;;;;13.82;9.70;;;13.60;99.90;;;;;;5012298;28;20028;-72
2023/09/22 03:07:16;;;;;;;13.98;9.80;;;13.60;99.90;;;;;;5005193;28;20364;-72
2023/09/22 03:09:43;;;;;;;12.93;9.13;;;13.50;99.90;;;;;;4997103;28;20484;-72
2023/09/22 03:12:10;;;;;;;13.02;9.52;;;13.50;99.90;;;;;;4996333;28;20025;-72
2023/09/22 03:14:36;;;;;;;14.55;10.20;;;13.50;99.90;;;;;;5013506;28;20037;-73
2023/09/22 03:17:04;;;;;;;16.27;10.02;;;13.50;99.90;;;;;;5014207;28;20038;-72
2023/09/22 03:19:30;;;;;;;12.88;8.90;;;13.50;99.90;;;;;;4982639;28;20033;-72
2023/09/22 03:21:57;;;;;;;12.32;9.60;;;13.50;99.90;;;;;;5014002;28;20277;-72
2023/09/22 03:24:24;;;;;;;13.98;9.88;;;13.50;99.90;;;;;;4997033;28;20037;-72
2023/09/22 03:26:52;;;;;;;16.02;11.05;;;13.40;99.90;;;;;;4998283;28;20038;-72
2023/09/22 03:29:18;;;;;;;12.70;8.98;;;13.50;99.90;;;;;;4981455;28;20033;-72
2023/09/22 03:31:45;;;;;;;13.57;8.20;;;13.50;99.90;;;;;;4980680;28;20033;-72
2023/09/22 03:34:11;;;;;;;11.70;8.52;;;13.40;99.90;;;;;;4998592;28;20033;-72
2023/09/22 03:36:38;;;;;;;10.85;7.38;;;13.40;99.90;;;;;;5015110;28;20014;-72
2023/09/22 03:39:12;;;;;;;15.75;8.30;;;13.40;99.90;;;;;;5015355;28;20139;-73
2023/09/22 03:41:42;;;;;;;12.93;8.48;;;13.40;99.90;;;;;;5014191;28;20495;-72
2023/09/22 03:44:09;;;;;;;13.73;8.18;;;13.40;99.90;;;;;;5016206;28;20041;-72
2023/09/22 03:46:36;;;;;;;13.65;8.15;;;13.40;99.90;;;;;;5019015;28;20034;-73
2023/09/22 03:49:05;;;;;;;12.70;8.75;;;13.40;99.90;;;;;;5002466;28;20029;-72
2023/09/22 03:51:31;;;;;;;14.75;8.93;;;13.40;99.90;;;;;;5001386;28;20388;-72
2023/09/22 03:53:57;;;;;;;14.43;8.82;;;13.40;99.90;;;;;;5017906;28;20033;-72
2023/09/22 03:56:24;;;;;;;14.80;9.13;;;13.50;99.90;;;;;;5001554;28;20024;-72
2023/09/22 03:58:50;;;;;;;16.70;9.88;;;13.50;99.90;;;;;;5018119;28;20022;-72
2023/09/22 04:01:16;;;;;;;16.58;9.90;;;13.50;99.90;;;;;;4995321;28;20057;-72
2023/09/22 04:03:43;;;;;;;14.20;8.65;;;13.50;99.90;;;;;;4952925;28;20045;-72
2023/09/22 04:06:09;;;;;;;13.27;8.68;;;13.60;99.90;;;;;;5001772;28;20383;-72
2023/09/22 04:08:36;;;;;;;14.32;8.07;;;13.60;99.90;;;;;;5016999;28;20498;-72
2023/09/22 04:11:03;;;;;;;15.73;9.38;;;13.60;99.90;;;;;;4985641;28;20033;-73
2023/09/22 04:13:30;;;;;;;21.17;12.20;;;13.60;99.90;;;;;;5017036;28;20037;-72
2023/09/22 04:16:00;;;;;;;15.35;9.43;;;13.60;99.90;;;;;;5018492;28;20044;-72
2023/09/22 04:18:30;;;;;;;17.38;10.35;;;13.60;99.90;;;;;;5016620;28;20345;-72
2023/09/22 04:20:57;;;;;;;17.85;11.10;;;13.60;99.90;;;;;;5016918;28;20045;-72
2023/09/22 04:23:27;;;;;;;14.05;8.77;;;13.60;99.90;;;;;;5016491;28;20021;-73
2023/09/22 04:25:54;;;;;;;19.48;12.73;;;13.60;99.90;;;;;;5001546;28;20041;-72
2023/09/22 04:28:24;;;;;;;15.55;10.10;;;13.60;99.90;;;;;;5017482;28;20025;-72
2023/09/22 04:30:51;;;;;;;17.52;11.07;;;13.70;99.90;;;;;;4983871;28;20045;-72
2023/09/22 04:33:20;;;;;;;19.90;11.38;;;13.70;99.90;;;;;;5017204;28;20037;-72
2023/09/22 04:35:48;;;;;;;18.85;11.57;;;13.60;99.90;;;;;;5000041;28;20041;-71
2023/09/22 04:38:14;;;;;;;22.27;11.95;;;13.70;99.90;;;;;;5018164;28;20022;-71
2023/09/22 04:40:43;;;;;;;15.45;10.73;;;13.70;99.90;;;;;;4999008;28;20688;-71
2023/09/22 04:43:11;;;;;;;14.13;9.50;;;13.80;99.90;;;;;;5003821;28;20360;-71
2023/09/22 04:45:39;;;;;;;13.35;9.20;;;13.80;99.90;;;;;;5000623;28;20037;-72
2023/09/22 04:48:09;;;;;;;24.95;12.82;;;13.80;99.90;;;;;;5009767;28;20060;-71
2023/09/22 04:50:36;;;;;;;16.83;10.05;;;13.80;99.90;;;;;;5000528;28;20049;-72
2023/09/22 04:53:07;;;;;;;13.63;9.85;;;13.80;99.90;;;;;;4970661;28;20049;-72
2023/09/22 04:55:35;;;;;;;18.38;11.02;;;13.90;99.90;;;;;;4999073;28;20041;-71
2023/09/22 04:58:03;;;;;;;13.38;9.15;;;13.90;99.90;;;;;;4993431;28;20395;-72
2023/09/22 05:00:33;;;;;;;12.15;8.57;;;13.90;99.90;;;;;;5013757;28;20041;-71
2023/09/22 05:03:06;;;;;;;13.20;7.40;;;13.90;99.90;;;;;;5015301;28;20046;-71
2023/09/22 05:05:33;;;;;;;13.95;8.73;;;13.90;99.90;;;;;;5014946;28;20029;-72
2023/09/22 05:07:59;;;;;;;17.85;10.85;;;13.90;99.90;;;;;;5001081;28;20467;-71
2023/09/22 05:10:27;;;;;;;15.55;8.48;;;13.90;99.90;;;;;;5016575;28;20491;-72
2023/09/22 05:12:54;;;;;;;9.35;6.57;;;13.90;99.90;;;;;;5015278;28;20045;-71
2023/09/22 05:15:20;;;;;;;12.20;7.25;;;13.90;99.90;;;;;;5010043;28;20029;-72
2023/09/22 05:17:47;;;;;;;10.55;6.53;;;14.00;99.90;;;;;;5015501;28;20049;-72
2023/09/22 05:20:13;;;;;;;8.00;6.28;;;14.00;99.90;;;;;;5016396;28;20484;-71
2023/09/22 05:22:40;;;;;;;8.68;5.55;;;14.00;99.90;;;;;;4998836;28;20519;-71
2023/09/22 05:25:07;;;;;;;10.30;6.45;;;14.00;99.90;;;;;;5015597;28;20030;-71
2023/09/22 05:27:35;;;;;;;8.20;6.03;;;14.00;99.90;;;;;;5016040;28;20096;-71
2023/09/22 05:30:03;;;;;;;10.25;6.28;;;14.00;99.90;;;;;;4997766;28;20357;-71
2023/09/22 05:32:30;;;;;;;7.40;5.43;;;14.00;99.90;;;;;;5014610;28;20026;-72
2023/09/22 05:34:56;;;;;;;9.80;7.20;;;14.10;99.90;;;;;;5015482;28;20033;-71
2023/09/22 05:37:23;;;;;;;11.15;7.90;;;14.10;99.90;;;;;;4980893;28;20037;-71
2023/09/22 05:39:51;;;;;;;10.35;6.63;;;14.10;99.90;;;;;;5016058;28;20569;-72
2023/09/22 05:42:17;;;;;;;8.25;6.35;;;14.00;99.90;;;;;;5014266;28;22226;-71
2023/09/22 05:44:44;;;;;;;8.05;5.60;;;14.00;99.90;;;;;;5015969;28;20502;-71
2023/09/22 05:47:10;;;;;;;6.18;5.47;;;14.00;99.90;;;;;;4998413;28;20121;-72
2023/09/22 05:49:36;;;;;;;6.78;5.05;;;14.00;99.90;;;;;;4998412;28;20021;-71
2023/09/22 05:52:03;;;;;;;8.25;6.15;;;14.00;99.90;;;;;;5015044;28;20471;-71
2023/09/22 05:54:30;;;;;;;9.25;6.60;;;14.00;99.90;;;;;;5015975;28;20487;-71
2023/09/22 05:56:56;;;;;;;8.27;5.13;;;14.00;99.90;;;;;;5014273;28;20049;-71
2023/09/22 05:59:24;;;;;;;6.50;4.75;;;13.90;99.90;;;;;;4999555;28;20029;-72
2023/09/22 06:01:50;;;;;;;5.93;4.18;;;13.90;99.90;;;;;;5014114;28;20045;-71
2023/09/22 06:04:17;;;;;;;6.68;4.38;;;13.80;99.90;;;;;;4981908;28;20613;-71
2023/09/22 06:06:43;;;;;;;7.25;5.50;;;13.80;99.90;;;;;;5014436;28;20044;-71
2023/09/22 06:09:13;;;;;;;8.80;5.85;;;13.70;99.90;;;;;;4999429;28;20514;-71
2023/09/22 06:11:40;;;;;;;9.07;5.43;;;13.70;99.90;;;;;;5013672;28;20025;-71
2023/09/22 06:14:07;;;;;;;7.00;5.63;;;13.70;99.90;;;;;;4997581;28;20030;-71
2023/09/22 06:16:34;;;;;;;5.72;4.82;;;13.70;99.90;;;;;;4997783;28;20476;-72
2023/09/22 06:19:00;;;;;;;6.95;5.82;;;13.70;99.90;;;;;;4996657;28;20025;-71
2023/09/22 06:21:29;;;;;;;8.15;5.00;;;13.70;99.90;;;;;;4999053;28;20037;-71
2023/09/22 06:23:57;;;;;;;6.10;5.13;;;13.80;99.90;;;;;;5013769;28;20036;-71
2023/09/22 06:26:23;;;;;;;6.35;5.13;;;13.90;99.90;;;;;;4982947;28;20041;-71
2023/09/22 06:28:50;;;;;;;6.63;4.65;;;14.00;99.90;;;;;;5014078;28;20372;-72
2023/09/22 06:31:16;;;;;;;6.38;4.28;;;14.00;99.90;;;;;;4982157;28;20025;-71
2023/09/22 06:33:43;;;;;;;6.68;4.60;;;14.00;99.90;;;;;;5012517;28;20037;-71
2023/09/22 06:36:09;;;;;;;8.90;5.70;;;14.10;99.90;;;;;;5000117;28;20072;-72
2023/09/22 06:38:35;;;;;;;6.72;5.03;;;14.10;99.90;;;;;;4997128;28;20400;-72
2023/09/22 06:41:04;;;;;;;7.40;4.97;;;14.20;99.90;;;;;;5013452;28;20026;-71
2023/09/22 06:43:31;;;;;;;6.75;4.95;;;14.20;99.90;;;;;;5013430;28;20113;-71
2023/09/22 06:46:03;;;;;;;9.93;5.18;;;14.30;99.90;;;;;;5014201;28;20056;-71
2023/09/22 06:48:30;;;;;;;5.95;3.50;;;14.30;99.90;;;;;;4997381;28;20021;-71
2023/09/22 06:51:00;;;;;;;8.07;4.10;;;14.30;99.90;;;;;;4998205;28;20037;-71
2023/09/22 06:53:28;;;;;;;4.40;3.10;;;14.30;99.90;;;;;;5013100;28;20550;-71
2023/09/22 06:56:10;;;;;;;5.45;2.97;;;14.40;99.90;;;;;;4998040;28;20472;-71
2023/09/22 06:58:38;;;;;;;;;;;14.50;99.90;;;;;;5013786;28;20021;-71
2023/09/22 07:01:13;;;;;;;6.15;3.63;;;14.50;99.90;;;;;;4997945;28;19913;-72
2023/09/22 07:03:41;;;;;;;8.55;3.45;;;14.60;99.90;;;;;;5013407;28;20037;-72
2023/09/22 07:06:09;;;;;;;3.75;2.72;;;14.70;99.90;;;;;;5013324;28;20042;-72
2023/09/22 07:08:38;;;;;;;4.55;2.72;;;14.70;99.90;;;;;;5012200;28;20036;-72
2023/09/22 07:11:09;;;;;;;3.78;2.35;;;14.70;99.90;;;;;;4974916;28;21536;-73
2023/09/22 07:13:42;;;;;;;9.15;5.53;;;14.70;99.90;;;;;;4973717;28;20025;-71
2023/09/22 07:16:10;;;;;;;5.32;3.78;;;14.70;99.90;;;;;;4997858;28;20029;-72
2023/09/22 07:18:36;;;;;;;8.48;4.15;;;14.80;99.90;;;;;;4990259;28;20032;-72
2023/09/22 07:21:03;;;;;;;4.03;2.60;;;14.90;99.90;;;;;;5010418;28;20033;-73
2023/09/22 07:23:30;;;;;;;6.13;2.85;;;14.90;99.90;;;;;;5018033;28;20769;-73
2023/09/22 07:26:11;;;;;;;7.80;3.13;;;15.00;99.90;;;;;;5018378;28;20045;-73
2023/09/22 07:28:39;;;;;;;4.78;2.30;;;15.10;99.90;;;;;;5017905;28;20044;-72
2023/09/22 07:31:12;;;;;;;5.32;2.20;;;15.20;99.90;;;;;;5017500;28;20319;-71
2023/09/22 07:33:43;;;;;;;4.00;3.42;;;15.30;99.90;;;;;;5000501;28;20029;-72
2023/09/22 07:36:10;;;;;;;5.47;3.42;;;15.40;99.90;;;;;;5016777;28;20026;-72
2023/09/22 07:38:36;;;;;;;6.22;3.70;;;15.50;99.90;;;;;;4981837;28;20391;-73
2023/09/22 07:41:03;;;;;;;5.22;2.92;;;15.60;99.90;;;;;;5012706;28;20471;-73
2023/09/22 07:43:29;;;;;;;4.65;2.03;;;15.50;99.90;;;;;;5016979;28;20037;-73
2023/09/22 07:46:04;;;;;;;4.50;1.70;;;15.40;99.90;;;;;;5015207;28;20037;-72
2023/09/22 07:48:30;;;;;;;2.55;1.80;;;15.40;99.90;;;;;;5001501;28;20042;-72
2023/09/22 07:50:58;;;;;;;4.25;1.65;;;15.40;99.90;;;;;;5017544;28;20480;-74
2023/09/22 07:53:25;;;;;;;2.92;1.23;;;15.40;99.90;;;;;;4999594;28;20041;-75
2023/09/22 07:55:55;;;;;;;4.43;2.35;;;15.50;99.90;;;;;;5000601;28;20033;-74
2023/09/22 07:58:25;;;;;;;4.20;2.40;;;15.70;99.90;;;;;;5001818;28;20038;-74
2023/09/22 08:00:52;;;;;;;3.10;1.50;;;15.70;99.90;;;;;;5018034;28;20018;-72
2023/09/22 08:03:19;;;;;;;3.78;1.40;;;15.70;99.90;;;;;;4997988;28;20034;-73
2023/09/22 08:05:46;;;;;;;3.30;0.90;;;15.70;99.90;;;;;;4983614;28;20127;-79
2023/09/22 08:08:17;;;;;;;3.60;1.02;;;15.80;99.90;;;;;;4958298;28;20041;-75
2023/09/22 08:10:44;;;;;;;2.55;1.17;;;15.90;99.90;;;;;;5017052;28;20036;-75
2023/09/22 08:13:11;;;;;;;2.47;0.70;;;16.00;99.90;;;;;;5016412;28;20041;-74
2023/09/22 08:15:38;;;;;;;4.22;0.90;;;16.10;99.90;;;;;;4998738;28;20080;-74
2023/09/22 08:18:05;;;;;;;4.75;1.52;;;16.10;99.90;;;;;;5015747;28;20395;-74
2023/09/22 08:20:36;;;;;;;2.90;1.08;;;16.10;99.90;;;;;;5015885;28;20506;-74
2023/09/22 08:23:02;;;;;;;2.92;0.60;;;16.10;99.90;;;;;;5015071;28;20044;-74
2023/09/22 08:25:29;;;;;;;2.22;0.70;;;16.10;99.90;;;;;;4999565;28;20048;-74
2023/09/22 08:27:56;;;;;;;2.90;0.68;;;16.30;99.90;;;;;;5001209;28;20045;-74
2023/09/22 08:30:23;;;;;;;2.65;0.60;;;16.40;99.90;;;;;;4999615;28;20059;-74
2023/09/22 08:32:50;;;;;;;2.50;0.70;;;16.40;99.90;;;;;;5007054;28;20392;-75
2023/09/22 08:35:17;;;;;;;2.25;0.80;;;16.30;99.90;;;;;;5017350;28;20407;-75
2023/09/22 08:37:44;;;;;;;2.42;0.80;;;16.30;99.90;;;;;;5001243;28;20032;-75
2023/09/22 08:40:15;;;;;;;1.95;0.55;;;16.30;99.90;;;;;;4978297;28;22676;-74
2023/09/22 08:42:46;;;;;;;3.90;0.60;;;16.30;99.90;;;;;;5012116;28;20361;-74
2023/09/22 08:45:13;;;;;;;1.38;0.50;;;16.30;99.90;;;;;;4979443;28;20071;-74
2023/09/22 08:47:43;;;;;;;2.38;0.60;;;16.50;99.90;;;;;;5015397;28;20033;-74
2023/09/22 08:50:17;;;;;;;3.58;0.60;;;16.60;99.90;;;;;;4978103;28;20367;-74
2023/09/22 08:52:48;;;;;;;2.28;0.50;;;16.50;99.90;;;;;;5002710;28;20045;-74
2023/09/22 08:55:15;;;;;;;1.83;0.40;;;16.50;99.90;;;;;;4966295;28;20057;-75
2023/09/22 08:57:44;;;;;;;2.35;0.60;;;16.30;99.90;;;;;;5015403;28;20393;-75
2023/09/22 09:00:18;;;;;;;2.05;0.40;;;16.30;99.90;;;;;;5015079;28;20033;-75
2023/09/22 09:02:45;;;;;;;1.83;0.60;;;16.20;99.90;;;;;;5012575;28;20048;-75
2023/09/22 09:05:27;;;;;;;1.95;0.50;;;16.30;99.90;;;;;;5016943;28;20041;-75
2023/09/22 09:07:55;;;;;;;1.03;0.40;;;16.30;99.90;;;;;;5016475;28;20491;-75
2023/09/22 09:10:30;;;;;;;2.00;0.65;;;16.30;99.90;;;;;;5015584;28;20032;-75
2023/09/22 09:13:01;;;;;;;1.13;0.30;;;16.50;99.90;;;;;;5016057;28;20049;-75
2023/09/22 09:15:29;;;;;;;1.45;0.40;;;16.60;99.90;;;;;;4981344;28;20044;-75
2023/09/22 09:18:07;;;;;;;1.00;0.40;;;16.60;99.90;;;;;;5014165;28;20034;-75
2023/09/22 09:20:41;;;;;;;1.13;0.30;;;16.60;99.90;;;;;;5015107;28;20045;-75
2023/09/22 09:23:22;;;;;;;1.73;0.43;;;16.50;99.90;;;;;;5014899;28;20048;-75
2023/09/22 09:25:50;;;;;;;1.52;0.40;;;16.50;99.90;;;;;;4981341;28;20492;-75
2023/09/22 09:28:18;;;;;;;2.30;0.30;;;16.40;99.90;;;;;;4995344;28;21206;-76
2023/09/22 09:30:58;;;;;;;1.40;0.30;;;16.50;99.90;;;;;;5014844;28;20030;-75
2023/09/22 09:33:27;;;;;;;1.48;0.30;;;16.60;99.90;;;;;;4996857;28;20403;-76
2023/09/22 09:35:55;;;;;;;1.23;0.30;;;16.90;99.90;;;;;;5013200;28;20056;-75
2023/09/22 09:38:29;;;;;;;0.80;0.30;;;17.10;99.90;;;;;;4996827;28;20099;-76
2023/09/22 09:40:58;;;;;;;0.50;0.30;;;17.30;99.90;;;;;;5011867;28;20029;-75
2023/09/22 09:43:25;;;;;;;2.22;0.70;;;17.40;99.90;;;;;;5000120;28;20040;-76
2023/09/22 09:45:59;;;;;;;2.30;0.50;;;17.50;99.90;;;;;;5000198;28;20021;-75
2023/09/22 09:48:27;;;;;;;1.15;0.40;;;17.70;99.90;;;;;;5012997;28;20048;-75
2023/09/22 09:50:58;;;;;;;1.63;0.50;;;18.00;99.90;;;;;;4997099;28;20488;-75
2023/09/22 09:53:28;;;;;;;3.08;1.30;;;18.30;99.90;;;;;;5030474;28;20045;-76
2023/09/22 09:56:03;;;;;;;1.70;0.45;;;18.50;99.90;;;;;;4999248;28;20048;-76
2023/09/22 09:58:32;;;;;;;1.15;0.50;;;18.70;99.90;;;;;;4981674;28;20480;-76
2023/09/22 10:01:06;;;;;;;1.48;0.38;;;18.90;99.90;;;;;;5014801;28;20028;-76
2023/09/22 10:03:35;;;;;;;0.98;0.30;;;19.10;99.90;;;;;;5013616;28;20037;-76
2023/09/22 10:06:08;;;;;;;1.42;0.40;;;19.30;99.90;;;;;;5001237;28;20037;-76
2023/09/22 10:08:37;;;;;;;1.23;0.30;;;19.40;99.90;;;;;;5014083;28;20630;-75
2023/09/22 10:11:07;;;;;;;1.73;0.30;;;19.30;99.90;;;;;;5014090;28;20061;-76
2023/09/22 10:13:37;;;;;;;1.02;0.50;;;19.10;99.90;;;;;;5014467;28;20034;-75
2023/09/22 10:16:06;;;;;;;1.75;0.30;;;18.70;99.90;;;;;;4997351;28;20041;-75
2023/09/22 10:18:50;;;;;;;1.27;0.50;;;18.40;99.90;;;;;;5014185;28;20040;-75
2023/09/22 10:21:29;;;;;;;2.40;0.30;;;18.30;99.90;;;;;;5015041;28;20045;-75
2023/09/22 10:24:15;;;;;;;1.88;0.43;;;18.30;99.90;;;;;;5013844;28;20037;-75
2023/09/22 10:26:54;;;;;;;1.23;0.43;;;18.80;99.90;;;;;;5014332;28;20412;-75
2023/09/22 10:29:34;;;;;;;1.08;0.25;;;19.50;99.90;;;;;;4995795;28;20052;-75
2023/09/22 10:32:21;;;;;;;3.55;0.30;;;20.20;99.90;;;;;;5013702;28;20045;-75
2023/09/22 10:34:51;;;;;;;1.17;0.20;;;20.60;99.90;;;;;;4998697;28;20032;-75
2023/09/22 10:37:22;;;;;;;1.00;0.20;;;20.70;99.90;;;;;;5013446;28;20040;-75
2023/09/22 10:40:11;;;;;;;0.68;0.30;;;20.80;99.90;;;;;;5016012;28;20029;-75
2023/09/22 10:42:43;;;;;;;1.40;0.40;;;21.00;99.90;;;;;;5014663;28;20073;-75
2023/09/22 10:45:10;;;;;;;0.80;0.20;;;21.20;99.90;;;;;;4970007;28;20037;-75
2023/09/22 10:47:41;;;;;;;2.22;0.30;;;21.50;99.90;;;;;;4987930;28;20382;-75
2023/09/22 10:50:30;;;;;;;0.70;0.20;;;21.90;99.90;;;;;;5015736;28;20479;-79
2023/09/22 10:53:02;;;;;;;2.58;0.60;;;22.40;99.90;;;;;;4997570;28;20037;-76
2023/09/22 10:55:37;;;;;;;0.93;0.35;;;22.90;99.90;;;;;;5013970;28;20037;-77
2023/09/22 10:58:05;;;;;;;1.77;0.35;;;23.50;99.90;;;;;;5013114;28;20056;-76
2023/09/22 11:00:32;;;;;;;1.48;0.40;;;24.00;99.90;;;;;;5014311;28;20025;-75
2023/09/22 11:03:09;;;;;;;2.50;0.32;;;24.40;99.90;;;;;;5014198;28;20041;-75
2023/09/22 11:05:37;;;;;;;1.15;0.20;;;24.80;99.90;;;;;;4995965;28;20038;-74
2023/09/22 11:08:14;;;;;;;1.10;0.30;;;25.20;99.90;;;;;;4981400;28;20030;-75
2023/09/22 11:10:43;;;;;;;13.05;9.88;;;25.60;99.90;;;;;;5029755;28;20392;-75
2023/09/22 11:13:09;;;;;;;7.20;6.10;;;25.90;99.90;;;;;;4980568;28;20036;-75
2023/09/22 11:15:48;;;;;;;2.28;1.33;;;26.00;99.90;;;;;;4998035;28;20056;-74
2023/09/22 11:18:26;;;;;;;1.88;0.40;;;26.30;99.90;;;;;;5013945;28;20595;-74
2023/09/22 11:21:04;;;;;;;0.70;0.30;;;26.60;99.90;;;;;;5011779;28;20041;-74
2023/09/22 11:23:32;;;;;;;0.55;0.20;;;26.40;99.90;;;;;;4980971;28;20056;-74
2023/09/22 11:26:01;;;;;;;2.25;0.20;;;25.50;99.90;;;;;;4989716;28;20053;-74
2023/09/22 11:28:28;;;;;;;0.60;0.20;;;24.60;99.90;;;;;;4997322;28;20508;-74
2023/09/22 11:30:55;;;;;;;1.20;0.28;;;23.90;99.90;;;;;;5012165;28;20569;-73
2023/09/22 11:33:22;;;;;;;1.33;0.20;;;23.50;99.90;;;;;;4975146;28;20083;-74
2023/09/22 11:35:52;;;;;;;1.23;0.50;;;23.50;99.90;;;;;;4982285;28;20037;-74
2023/09/22 11:38:29;;;;;;;0.88;0.30;;;23.90;99.90;;;;;;5028561;28;20036;-73
2023/09/22 11:41:04;;;;;;;0.68;0.25;;;24.70;99.90;;;;;;5013109;28;20045;-73
2023/09/22 11:43:31;;;;;;;0.45;0.20;;;25.40;99.90;;;;;;5011634;28;20607;-73
2023/09/22 11:46:05;;;;;;;1.17;0.40;;;25.60;99.90;;;;;;4982038;28;20048;-73
2023/09/22 11:48:50;;;;;;;0.93;0.30;;;25.60;99.90;;;;;;4998182;28;20053;-74
2023/09/22 11:51:17;;;;;;;0.70;0.20;;;25.70;99.90;;;;;;4972398;28;20152;-74
2023/09/22 11:53:43;;;;;;;0.80;0.30;;;26.00;99.90;;;;;;5016400;28;20056;-74
2023/09/22 11:56:10;;;;;;;1.00;0.20;;;26.50;99.90;;;;;;5012005;28;20042;-74
2023/09/22 11:58:38;;;;;;;3.97;2.22;;;27.00;99.90;;;;;;4996842;28;20044;-74
2023/09/22 12:01:05;;;;;;;3.90;2.38;;;27.70;99.90;;;;;;4984084;28;20033;-74
2023/09/22 12:03:34;;;;;;;5.63;3.92;;;28.20;99.20;;;;;;4994504;28;20052;-73
2023/09/22 12:06:02;;;;;;;5.45;4.28;;;28.50;97.70;;;;;;5034508;28;20026;-73
2023/09/22 12:08:29;;;;;;;2.55;1.55;;;28.80;96.60;;;;;;5011765;28;20025;-73
2023/09/22 12:10:55;;;;;;;1.25;0.40;;;29.00;95.70;;;;;;5001760;28;20053;-73
2023/09/22 12:13:22;;;;;;;1.73;0.50;;;29.40;94.80;;;;;;5029165;28;20029;-74
2023/09/22 12:15:49;;;;;;;1.73;0.93;;;29.80;94.00;;;;;;5001946;28;20048;-73
2023/09/22 12:18:15;;;;;;;3.05;1.10;;;30.20;92.20;;;;;;5017606;28;20042;-73
2023/09/22 12:20:41;;;;;;;1.08;0.50;;;30.50;91.20;;;;;;5000798;28;20045;-74
2023/09/22 12:23:07;;;;;;;1.00;0.40;;;30.80;90.10;;;;;;5018766;28;20037;-73
2023/09/22 12:25:34;;;;;;;1.25;0.30;;;31.00;87.80;;;;;;5018730;28;20056;-73
2023/09/22 12:28:00;;;;;;;2.10;0.45;;;31.30;85.50;;;;;;5022309;28;20048;-74
2023/09/22 12:30:27;;;;;;;1.63;0.45;;;31.50;83.40;;;;;;5000307;28;20545;-73
2023/09/22 12:32:53;;;;;;;0.45;0.25;;;31.60;82.30;;;;;;5018763;28;20552;-73
2023/09/22 12:35:20;;;;;;;1.77;0.73;;;31.70;80.40;;;;;;5019272;28;20033;-73
2023/09/22 12:37:49;;;;;;;1.02;0.20;;;31.50;78.20;;;;;;5015210;28;20045;-73
2023/09/22 12:40:15;;;;;;;1.05;0.30;;;31.30;77.90;;;;;;4975009;28;20052;-73
2023/09/22 12:42:42;;;;;;;2.03;0.38;;;31.10;77.00;;;;;;5019162;28;20033;-73
2023/09/22 12:45:08;;;;;;;0.75;0.30;;;31.40;77.50;;;;;;5006106;28;20036;-74
2023/09/22 12:47:35;;;;;;;1.27;0.30;;;31.00;76.60;;;;;;4979656;28;20382;-73